< < Back
Terminal Aerodrome Forecast


Current Version              Previous Versions:   1  2  3  4  5  6  7  8  9  

Terminal Aerodrome Forecast

663
FTUS42 KGSP 300100 AAA
TAFAVL
TAF AMD
KAVL 300151Z 3002/3024 34009KT P6SM FEW250
     FM300900 33004KT 5SM BR FEW250
     FM301200 32003KT P6SM FEW250=

Latest METAR

076
SAUS70 KWBC 300300 RRB
MTRAVL
METAR KAVL 300254Z AUTO 35008KT 10SM CLR 17/10 A3010 RMK AO2 SLP173
T01720100 51016


USA.gov is the U.S. government's official web portal to all federal, state and local government web resources and services.